Date,TemperatureHighF,TemperatureAvgF,TemperatureLowF,DewpointHighF,DewpointAvgF,DewpointLowF,HumidityHigh,HumidityAvg,HumidityLow,PressureMaxIn,PressureMinIn,WindSpeedMaxMPH,WindSpeedAvgMPH,GustSpeedMaxMPH,PrecipitationSumIn
2013-7-1,89.1,81.8,73.2,79.5,75.8,70.5,97,82,70,30.05,29.92,17,2,17,0.25
2013-7-2,88.7,82.4,75.7,79.3,76.7,73.9,96,83,71,30.12,29.98,13,2,14,0.26
2013-7-3,88.5,81.4,77.4,78.6,75.8,73.6,92,83,70,30.13,30.05,14,2,16,0.23
2013-7-4,89.4,83.6,78.3,78.4,75.6,72.1,88,77,64,30.16,30.07,14,2,14,0.02
2013-7-5,86.5,80.8,76.3,78.8,75.6,73.0,93,84,73,30.15,30.06,13,1,14,0.46
2013-7-6,90.3,82.6,79.7,78.1,75.2,73.0,87,79,64,30.13,30.04,11,1,12,0.16
2013-7-7,90.0,83.3,78.3,78.6,75.5,73.4,90,78,66,30.11,30.03,17,1,17,0.06
2013-7-8,91.4,83.5,78.6,76.6,74.3,72.3,86,74,59,30.15,30.08,9,1,10,0.00
2013-7-9,89.4,81.4,74.3,75.7,73.2,70.0,92,77,57,30.14,30.05,7,1,10,0.13
2013-7-10,85.1,78.2,70.2,76.3,73.5,68.0,98,86,74,30.09,30.00,10,1,11,0.58
2013-7-11,89.4,82.4,75.7,78.1,75.4,72.7,94,80,67,30.05,29.95,12,1,12,0.00
2013-7-12,91.4,80.1,74.8,77.4,73.5,69.1,97,81,56,29.97,29.90,13,1,13,0.00
2013-7-13,87.6,75.7,71.8,77.4,73.0,70.7,98,92,70,30.04,29.92,10,0,10,0.66
2013-7-14,89.6,78.6,71.8,77.2,73.4,70.5,98,85,61,30.10,29.99,11,1,11,0.22
2013-7-15,89.1,79.8,71.4,78.1,73.7,70.2,98,83,63,30.10,30.01,10,0,11,0.21
2013-7-16,84.0,77.6,71.8,75.0,71.9,68.7,97,83,66,30.15,30.05,21,1,21,0.75
2013-7-17,81.0,77.5,73.2,74.8,73.1,69.1,96,86,74,30.15,30.05,14,0,14,0.23
2013-7-18,84.6,76.2,72.1,77.4,73.4,69.4,99,91,72,30.13,30.06,16,0,16,0.42
2013-7-19,88.3,80.3,72.5,79.0,75.9,71.8,99,87,72,30.14,30.05,12,1,12,0.14
2013-7-20,88.0,81.7,76.6,79.5,76.7,73.0,91,85,72,30.12,30.04,15,2,16,0.00
2013-7-21,88.5,80.3,74.3,79.7,76.1,72.5,97,87,72,30.17,30.05,11,1,11,0.36
2013-7-22,88.5,82.2,74.1,77.5,75.9,72.9,98,82,66,30.15,30.07,8,2,14,0.36
2013-7-23,89.8,82.7,75.4,79.2,75.8,73.6,96,80,64,30.11,29.98,15,2,15,0.00
2013-7-24,93.7,84.0,76.6,78.3,74.0,67.8,94,73,51,30.03,29.91,12,1,12,0.00
2013-7-25,94.5,84.1,73.9,76.8,74.4,71.2,96,74,53,30.02,29.92,12,1,12,0.00
2013-7-26,93.0,82.7,77.7,78.1,75.3,73.2,90,79,56,30.03,29.94,13,1,15,0.00
2013-7-27,90.1,79.5,74.8,78.1,75.2,72.1,95,87,66,30.01,29.94,12,1,12,0.09
2013-7-28,86.5,79.0,73.6,78.6,75.2,70.9,96,89,72,30.08,29.96,9,0,9,0.57
2013-7-29,90.1,82.1,74.8,80.1,76.5,73.6,97,84,69,30.14,30.03,8,0,9,0.00
2013-7-30,90.7,83.9,75.7,80.1,77.3,69.4,96,81,67,30.17,30.08,11,1,11,0.02
2013-7-31,91.8,84.6,79.5,78.6,76.1,72.3,91,76,61,30.12,30.01,10,1,10,0.01